createdAt,value
2023-02-05T00:04:25.780Z,103501.72
2023-02-05T00:09:29.284Z,103490.63
2023-02-05T00:14:32.046Z,103485.97
2023-02-05T00:19:36.320Z,103486.69
2023-02-05T00:24:39.119Z,103464.41
2023-02-05T00:29:42.400Z,103446.13
2023-02-05T00:34:46.726Z,103437.09
2023-02-05T00:39:49.614Z,103433.84
2023-02-05T00:44:52.434Z,103423.88
2023-02-05T00:49:56.505Z,103431.75
2023-02-05T00:54:59.321Z,103420.84
2023-02-05T01:00:02.158Z,103404.19
2023-02-05T01:05:06.893Z,103408.56
2023-02-05T01:10:10.386Z,103393.06
2023-02-05T01:15:14.597Z,103387.97
2023-02-05T01:20:20.523Z,103375.94
2023-02-05T01:25:23.699Z,103369.94
2023-02-05T01:30:27.642Z,103359.28
2023-02-05T01:35:32.451Z,103356.25
2023-02-05T01:40:35.606Z,103346.28
2023-02-05T01:45:51.806Z,103337.03
2023-02-05T01:51:00.410Z,103337.22
2023-02-05T01:56:07.318Z,103345.13
2023-02-05T02:01:10.290Z,103346.50
2023-02-05T02:06:14.681Z,103330.75
2023-02-05T02:11:22.520Z,103334.69
2023-02-05T02:16:27.005Z,103349.28
2023-02-05T02:21:51.426Z,103346.97
2023-02-05T02:27:11.011Z,103350.41
2023-02-05T02:32:22.263Z,103341.56
2023-02-05T02:37:34.456Z,103337.19
2023-02-05T02:42:44.851Z,103326.69
2023-02-05T02:47:54.514Z,103326.44
2023-02-05T02:52:58.310Z,103325.78
2023-02-05T02:58:03.242Z,103322.78
2023-02-05T03:03:12.614Z,103326.94
2023-02-05T03:08:22.040Z,103340.13
2023-02-05T03:13:25.104Z,103315.56
2023-02-05T03:18:38.148Z,103316.28
2023-02-05T03:23:41.163Z,103297.22
2023-02-05T03:28:46.693Z,103281.47
2023-02-05T03:34:05.578Z,103292.09
2023-02-05T03:39:26.457Z,103269.16
2023-02-05T03:44:42.651Z,103248.78
2023-02-05T03:49:55.874Z,103251.31
2023-02-05T03:55:06.103Z,103246.47
2023-02-05T04:00:11.884Z,103230.78
2023-02-05T04:05:22.880Z,103240.56
2023-02-05T04:10:27.663Z,103251.91
2023-02-05T04:15:31.401Z,103257.78
2023-02-05T04:20:38.111Z,103250.75
2023-02-05T04:25:43.289Z,103245.97
2023-02-05T04:30:49.416Z,103233.91
2023-02-05T04:35:59.757Z,103216.97
2023-02-05T04:41:02.843Z,103212.47
2023-02-05T04:46:06.952Z,103194.81
2023-02-05T04:51:13.702Z,103193.34
2023-02-05T04:56:18.373Z,103180.16
2023-02-05T05:01:23.830Z,103185.25
2023-02-05T05:06:28.030Z,103192.41
2023-02-05T05:11:30.897Z,103188.56
2023-02-05T05:16:33.689Z,103177.13
2023-02-05T05:21:38.001Z,103170.16
2023-02-05T05:26:43.836Z,103162.34
2023-02-05T05:31:46.772Z,103159.63
2023-02-05T05:36:51.404Z,103150.88
2023-02-05T05:42:12.026Z,103143.16
2023-02-05T05:47:14.883Z,103143.22
2023-02-05T05:52:19.202Z,103156.53
2023-02-05T05:57:22.092Z,103149.34
2023-02-05T06:02:24.919Z,103136.16
2023-02-05T06:07:29.090Z,103121.16
2023-02-05T06:12:32.004Z,103114.91
2023-02-05T06:17:35.902Z,103095.47
2023-02-05T06:22:40.518Z,103098.75
2023-02-05T06:27:43.459Z,103105.91
2023-02-05T06:32:46.543Z,103120.13
2023-02-05T06:37:50.718Z,103109.00
2023-02-05T06:42:53.959Z,103116.69
2023-02-05T06:47:57.616Z,103120.75
2023-02-05T06:53:01.736Z,103133.34
2023-02-05T06:58:04.672Z,103126.72
2023-02-05T07:03:07.451Z,103123.50
2023-02-05T07:08:11.538Z,103136.22
2023-02-05T07:13:14.437Z,103126.69
2023-02-05T07:18:17.595Z,103114.22
2023-02-05T07:23:21.728Z,103104.72
2023-02-05T07:28:24.706Z,103114.38
2023-02-05T07:33:27.499Z,103124.78
2023-02-05T07:38:31.869Z,103125.34
2023-02-05T07:43:35.056Z,103136.25
2023-02-05T07:48:38.410Z,103135.06
2023-02-05T07:53:42.632Z,103131.81
2023-02-05T07:58:45.351Z,103132.88
2023-02-05T08:03:48.543Z,103119.25
2023-02-05T08:08:52.727Z,103108.31
2023-02-05T08:13:55.518Z,103111.88
2023-02-05T08:18:58.329Z,103112.25
2023-02-05T08:24:03.155Z,103118.81
2023-02-05T08:29:06.026Z,103130.28
2023-02-05T08:34:08.890Z,103133.34
2023-02-05T08:39:13.277Z,103139.22
2023-02-05T08:44:16.066Z,103140.91
2023-02-05T08:49:19.620Z,103146.69
2023-02-05T08:54:23.908Z,103149.94
2023-02-05T08:59:26.711Z,103156.53
2023-02-05T09:04:29.613Z,103165.25
2023-02-05T09:09:34.944Z,103151.25
2023-02-05T09:14:37.736Z,103164.84
2023-02-05T09:19:41.885Z,103174.56
2023-02-05T09:24:46.038Z,103169.94
2023-02-05T09:29:48.784Z,103154.91
2023-02-05T09:34:51.559Z,103166.03
2023-02-05T09:45:35.576Z,103162.84
2023-02-05T09:50:42.164Z,103164.31
2023-02-05T09:55:48.389Z,103164.00
2023-02-05T10:00:57.975Z,103162.06
2023-02-05T10:06:16.966Z,103169.97
2023-02-05T10:11:32.659Z,103170.25
2023-02-05T10:16:51.512Z,103163.41
2023-02-05T10:22:11.047Z,103167.19
2023-02-05T10:27:20.728Z,103159.25
2023-02-05T10:32:25.628Z,103163.19
2023-02-05T10:37:39.476Z,103167.63
2023-02-05T10:42:48.790Z,103177.00
2023-02-05T10:48:11.645Z,103178.69
2023-02-05T10:53:18.117Z,103175.09
2023-02-05T10:58:49.068Z,103191.78
2023-02-05T11:04:04.332Z,103203.72
2023-02-05T11:09:30.219Z,103209.78
2023-02-05T11:14:38.192Z,103199.75
2023-02-05T11:19:41.324Z,103186.84
2023-02-05T11:24:44.204Z,103201.97
2023-02-05T11:29:51.667Z,103195.94
2023-02-05T11:35:10.744Z,103202.25
2023-02-05T11:40:23.447Z,103216.06
2023-02-05T11:45:29.036Z,103209.81
2023-02-05T11:50:33.442Z,103219.38
2023-02-05T11:55:37.720Z,103217.53
2023-02-05T12:00:52.308Z,103219.06
2023-02-05T12:06:00.322Z,103209.66
2023-02-05T12:11:28.921Z,103205.78
2023-02-05T12:16:46.441Z,103211.69
2023-02-05T12:21:59.965Z,103225.28
2023-02-05T12:27:09.632Z,103230.16
2023-02-05T12:32:20.203Z,103206.69
2023-02-05T12:37:41.016Z,103202.91
2023-02-05T12:42:55.669Z,103183.81
2023-02-05T12:48:16.636Z,103167.72
2023-02-05T12:53:39.011Z,103174.94
2023-02-05T12:58:46.123Z,103193.84
2023-02-05T13:03:56.217Z,103212.19
2023-02-05T13:09:04.247Z,103218.84
2023-02-05T13:14:16.485Z,103223.44
2023-02-05T13:19:29.400Z,103222.66
2023-02-05T13:24:55.740Z,103208.94
2023-02-05T13:30:02.519Z,103227.38
2023-02-05T13:35:11.938Z,103233.78
2023-02-05T13:40:41.908Z,103248.75
2023-02-05T13:46:07.000Z,103250.03
2023-02-05T13:51:31.100Z,103242.94
2023-02-05T13:56:47.237Z,103255.63
2023-02-05T14:01:56.334Z,103276.03
2023-02-05T14:07:04.085Z,103277.81
2023-02-05T14:12:10.669Z,103271.91
2023-02-05T14:17:55.170Z,103258.75
2023-02-05T14:23:00.976Z,103266.22
2023-02-05T14:28:04.344Z,103250.88
2023-02-05T14:33:28.907Z,103253.22
2023-02-05T14:38:34.746Z,103267.59
2023-02-05T14:44:03.868Z,103263.47
2023-02-05T14:49:27.976Z,103279.66
2023-02-05T14:54:38.793Z,103310.41
2023-02-05T14:59:50.265Z,103317.44
2023-02-05T15:04:55.370Z,103329.38
2023-02-05T15:10:05.553Z,103319.19
2023-02-05T15:15:36.636Z,103302.84
2023-02-05T15:20:41.539Z,103305.50
2023-02-05T15:25:54.031Z,103303.25
2023-02-05T15:31:28.328Z,103300.94
2023-02-05T15:36:36.471Z,103294.13
2023-02-05T15:41:45.221Z,103312.75
2023-02-05T15:46:49.216Z,103331.97
2023-02-05T15:51:52.299Z,103333.06
2023-02-05T15:56:58.008Z,103334.19
2023-02-05T16:02:04.283Z,103337.69
2023-02-05T16:07:22.280Z,103345.34
2023-02-05T16:12:31.469Z,103351.34
2023-02-05T16:17:40.979Z,103362.75
2023-02-05T16:22:50.310Z,103372.22
2023-02-05T16:27:57.154Z,103369.44
2023-02-05T16:33:48.213Z,103380.16
2023-02-05T16:39:26.662Z,103390.59
2023-02-05T16:58:22.597Z,103421.66
2023-02-05T17:03:29.812Z,103420.22
2023-02-05T17:08:45.447Z,103425.19
2023-02-05T17:13:50.148Z,103444.44
2023-02-05T17:18:58.307Z,103444.91
2023-02-05T17:24:06.002Z,103441.47
2023-02-05T17:29:16.906Z,103444.41
2023-02-05T17:34:20.196Z,103445.88
2023-02-05T17:39:23.244Z,103460.09
2023-02-05T17:44:34.149Z,103469.34
2023-02-05T17:49:37.090Z,103473.47
2023-02-05T17:54:39.973Z,103473.50
2023-02-05T17:59:45.088Z,103488.44
2023-02-05T18:04:47.944Z,103505.53
2023-02-05T18:09:50.765Z,103495.00
2023-02-05T18:14:55.668Z,103484.31
2023-02-05T18:19:58.439Z,103500.09
2023-02-05T18:25:01.323Z,103502.63
2023-02-05T18:30:07.054Z,103495.59
2023-02-05T18:35:14.277Z,103499.22
2023-02-05T18:40:17.550Z,103515.91
2023-02-05T18:45:23.920Z,103504.38
2023-02-05T18:50:30.700Z,103507.03
2023-02-05T18:55:35.557Z,103506.53
2023-02-05T19:00:39.822Z,103501.91
2023-02-05T19:05:46.349Z,103507.31
2023-02-05T19:10:52.260Z,103521.81
2023-02-05T19:15:57.845Z,103524.22
2023-02-05T19:21:07.537Z,103539.41
2023-02-05T19:26:52.085Z,103538.66
2023-02-05T19:33:28.210Z,103551.06
2023-02-05T19:38:20.695Z,103562.50
2023-02-05T19:43:50.946Z,103580.31
2023-02-05T20:27:34.670Z,103586.22
2023-02-05T20:40:49.589Z,103594.50
2023-02-05T20:53:39.782Z,103594.16
2023-02-05T21:23:29.442Z,103616.72
2023-02-05T21:28:33.148Z,103623.56
2023-02-05T21:33:37.122Z,103628.03
2023-02-05T21:38:44.198Z,103615.47
2023-02-05T21:43:50.404Z,103608.75
2023-02-05T21:48:55.009Z,103621.94
2023-02-05T22:07:13.258Z,103643.44
2023-02-05T22:18:47.513Z,103658.00
2023-02-05T22:24:04.384Z,103652.19
2023-02-05T22:29:09.431Z,103661.97
2023-02-05T22:34:16.055Z,103666.34
2023-02-05T22:39:18.955Z,103658.94
2023-02-05T22:44:22.557Z,103649.16
2023-02-05T22:49:26.676Z,103649.66
2023-02-05T22:54:29.712Z,103656.16
2023-02-05T22:59:32.558Z,103658.47
2023-02-05T23:04:36.979Z,103658.50
2023-02-05T23:09:51.169Z,103651.78
2023-02-05T23:15:03.939Z,103655.69
2023-02-05T23:20:31.472Z,103656.13
2023-02-05T23:25:40.367Z,103651.94
2023-02-05T23:30:46.151Z,103654.69
2023-02-05T23:35:50.628Z,103651.69
2023-02-05T23:40:53.979Z,103643.09
2023-02-05T23:45:57.225Z,103664.25
2023-02-05T23:51:01.361Z,103662.44
2023-02-05T23:56:04.225Z,103648.25
